createdAt,value
2023-04-18T00:01:32.464Z,24.15
2023-04-18T00:03:59.219Z,24.20
2023-04-18T00:06:25.966Z,25.38
2023-04-18T00:08:52.686Z,25.13
2023-04-18T00:11:19.424Z,26.38
2023-04-18T00:13:47.350Z,26.05
2023-04-18T00:16:14.372Z,24.90
2023-04-18T00:18:41.171Z,25.52
2023-04-18T00:21:08.644Z,25.48
2023-04-18T00:23:36.061Z,25.13
2023-04-18T00:26:02.848Z,26.52
2023-04-18T00:28:29.518Z,26.15
2023-04-18T00:30:56.238Z,25.38
2023-04-18T00:33:23.328Z,27.55
2023-04-18T00:35:51.842Z,25.40
2023-04-18T00:38:18.466Z,27.98
2023-04-18T00:40:47.808Z,26.38
2023-04-18T00:43:14.791Z,27.33
2023-04-18T00:45:41.655Z,26.60
2023-04-18T00:48:09.180Z,27.67
2023-04-18T00:50:37.705Z,27.15
2023-04-18T00:53:04.733Z,26.95
2023-04-18T00:55:31.603Z,27.90
2023-04-18T00:57:58.779Z,27.25
2023-04-18T01:00:25.813Z,28.02
2023-04-18T01:02:54.060Z,28.17
2023-04-18T01:05:23.703Z,26.92
2023-04-18T01:07:50.910Z,27.48
2023-04-18T01:10:18.252Z,27.60
2023-04-18T01:12:44.850Z,28.20
2023-04-18T01:15:11.837Z,28.10
2023-04-18T01:17:39.568Z,28.00
2023-04-18T01:20:07.066Z,27.02
2023-04-18T01:22:34.180Z,25.50
2023-04-18T01:25:00.945Z,27.38
2023-04-18T01:27:27.767Z,27.65
2023-04-18T01:29:54.494Z,26.77
2023-04-18T01:32:21.875Z,25.90
2023-04-18T01:34:48.596Z,27.58
2023-04-18T01:37:15.224Z,26.00
2023-04-18T01:39:41.856Z,27.35
2023-04-18T01:42:09.829Z,26.17
2023-04-18T01:44:37.347Z,25.40
2023-04-18T01:47:04.991Z,25.90
2023-04-18T01:49:32.733Z,25.83
2023-04-18T01:51:59.383Z,24.30
2023-04-18T01:54:26.020Z,25.75
2023-04-18T01:56:52.634Z,25.95
2023-04-18T01:59:20.501Z,25.73
2023-04-18T02:01:47.143Z,25.85
2023-04-18T02:04:14.179Z,25.42
2023-04-18T02:06:41.166Z,25.65
2023-04-18T02:09:07.840Z,25.13
2023-04-18T02:11:34.432Z,25.17
2023-04-18T02:14:02.910Z,23.70
2023-04-18T02:16:29.597Z,25.00
2023-04-18T02:18:56.516Z,24.60
2023-04-18T02:21:23.212Z,25.80
2023-04-18T02:23:49.957Z,23.90
2023-04-18T02:26:16.714Z,23.52
2023-04-18T02:28:43.321Z,24.48
2023-04-18T02:31:14.877Z,22.45
2023-04-18T02:33:43.154Z,23.15
2023-04-18T02:36:10.382Z,22.38
2023-04-18T02:38:36.963Z,23.55
2023-04-18T02:41:03.901Z,24.25
2023-04-18T02:43:30.832Z,22.90
2023-04-18T02:45:58.119Z,23.92
2023-04-18T02:48:24.924Z,21.90
2023-04-18T02:50:51.740Z,22.58
2023-04-18T02:53:18.459Z,22.85
2023-04-18T02:55:51.571Z,22.83
2023-04-18T02:58:19.572Z,22.00
2023-04-18T03:01:12.519Z,22.58
2023-04-18T03:03:59.395Z,21.60
2023-04-18T03:06:36.506Z,21.05
2023-04-18T03:09:03.917Z,21.33
2023-04-18T03:11:33.016Z,21.73
2023-04-18T03:13:59.792Z,20.83
2023-04-18T03:16:32.968Z,21.08
2023-04-18T03:19:01.536Z,19.88
2023-04-18T03:21:29.284Z,20.40
2023-04-18T03:23:57.082Z,20.88
2023-04-18T03:26:24.752Z,20.42
2023-04-18T03:28:52.893Z,20.90
2023-04-18T03:31:19.622Z,20.33
2023-04-18T03:33:47.030Z,20.85
2023-04-18T03:36:18.097Z,19.35
2023-04-18T03:38:45.434Z,19.38
2023-04-18T03:41:12.317Z,20.52
2023-04-18T03:43:38.956Z,20.02
2023-04-18T03:46:06.041Z,20.88
2023-04-18T03:48:35.869Z,20.17
2023-04-18T03:51:06.614Z,19.73
2023-04-18T03:53:33.648Z,19.15
2023-04-18T03:56:00.569Z,19.70
2023-04-18T03:58:42.073Z,19.50
2023-04-18T04:01:08.808Z,18.90
2023-04-18T04:03:35.691Z,18.50
2023-04-18T04:06:02.657Z,19.05
2023-04-18T04:08:29.312Z,19.27
2023-04-18T04:10:56.669Z,19.90
2023-04-18T04:13:24.205Z,19.45
2023-04-18T04:15:51.754Z,19.35
2023-04-18T04:18:18.531Z,19.33
2023-04-18T04:20:48.003Z,17.60
2023-04-18T04:23:28.069Z,18.42
2023-04-18T04:25:55.894Z,18.50
2023-04-18T04:28:40.869Z,19.02
2023-04-18T04:31:08.591Z,18.25
2023-04-18T04:33:38.754Z,18.48
2023-04-18T04:36:15.687Z,19.55
2023-04-18T04:38:45.650Z,18.60
2023-04-18T04:41:12.824Z,18.58
2023-04-18T04:43:41.224Z,18.63
2023-04-18T04:46:09.253Z,17.90
2023-04-18T04:48:35.885Z,18.02
2023-04-18T04:51:03.899Z,17.63
2023-04-18T04:53:30.837Z,17.30
2023-04-18T04:55:59.500Z,18.17
2023-04-18T04:58:27.066Z,16.35
2023-04-18T05:01:01.738Z,17.05
2023-04-18T05:03:28.751Z,16.00
2023-04-18T05:05:56.815Z,16.25
2023-04-18T05:08:23.482Z,16.45
2023-04-18T05:10:51.034Z,15.23
2023-04-18T05:13:17.735Z,14.77
2023-04-18T05:15:44.448Z,14.45
2023-04-18T05:18:11.233Z,14.40
2023-04-18T05:20:37.959Z,14.50
2023-04-18T05:23:04.613Z,14.30
2023-04-18T05:25:31.934Z,13.85
2023-04-18T05:28:00.555Z,13.15
2023-04-18T05:30:27.337Z,13.43
2023-04-18T05:32:53.967Z,12.20
2023-04-18T05:35:20.545Z,11.80
2023-04-18T05:37:47.327Z,11.85
2023-04-18T05:40:14.190Z,10.90
2023-04-18T05:42:41.035Z,11.60
2023-04-18T05:45:08.240Z,10.93
2023-04-18T05:47:35.117Z,11.65
2023-04-18T05:50:01.783Z,10.82
2023-04-18T05:52:28.607Z,10.32
2023-04-18T05:54:55.498Z,9.82
2023-04-18T05:57:22.196Z,10.38
2023-04-18T05:59:48.993Z,10.13
2023-04-18T06:02:16.005Z,10.13
2023-04-18T06:04:43.200Z,10.32
2023-04-18T06:07:10.001Z,9.90
2023-04-18T06:09:36.594Z,10.30
2023-04-18T06:12:03.472Z,9.90
2023-04-18T06:14:30.144Z,10.55
2023-04-18T06:16:56.999Z,9.70
2023-04-18T06:19:23.658Z,9.55
2023-04-18T06:21:50.742Z,9.75
2023-04-18T06:24:17.416Z,9.40
2023-04-18T06:26:44.060Z,10.40
2023-04-18T06:29:10.827Z,9.98
2023-04-18T06:31:37.466Z,9.48
2023-04-18T06:34:04.142Z,9.30
2023-04-18T06:36:31.505Z,9.98
2023-04-18T06:38:58.157Z,9.95
2023-04-18T06:41:24.902Z,9.40
2023-04-18T06:44:02.750Z,9.68
2023-04-18T06:46:31.791Z,9.32
2023-04-18T06:48:58.881Z,9.60
2023-04-18T06:51:25.522Z,10.25
2023-04-18T06:53:54.946Z,9.68
2023-04-18T06:56:21.726Z,10.02
2023-04-18T06:58:49.674Z,9.85
2023-04-18T07:01:16.469Z,10.00
2023-04-18T07:03:43.360Z,10.10
2023-04-18T07:06:10.935Z,9.50
2023-04-18T07:08:38.026Z,9.32
2023-04-18T07:11:06.020Z,10.73
2023-04-18T07:13:32.831Z,10.10
2023-04-18T07:15:59.566Z,9.65
2023-04-18T07:18:36.605Z,9.45
2023-04-18T07:21:07.480Z,10.68
2023-04-18T07:23:35.414Z,9.82
2023-04-18T07:26:03.112Z,9.80
2023-04-18T07:28:31.850Z,9.75
2023-04-18T07:30:59.296Z,8.98
2023-04-18T07:33:25.952Z,8.93
2023-04-18T07:35:53.149Z,8.63
2023-04-18T07:38:20.108Z,9.00
2023-04-18T07:40:46.768Z,9.05
2023-04-18T07:43:13.409Z,8.93
2023-04-18T07:45:43.095Z,8.60
2023-04-18T07:48:09.805Z,8.05
2023-04-18T07:50:36.490Z,8.65
2023-04-18T07:53:03.435Z,8.70
2023-04-18T07:55:30.647Z,8.63
2023-04-18T07:57:57.300Z,8.95
2023-04-18T08:00:24.584Z,9.00
2023-04-18T08:02:51.367Z,9.02
2023-04-18T08:05:21.608Z,8.63
2023-04-18T08:07:48.256Z,9.27
2023-04-18T08:10:14.931Z,9.43
2023-04-18T08:12:42.033Z,8.57
2023-04-18T08:15:09.098Z,9.10
2023-04-18T08:17:35.926Z,9.20
2023-04-18T08:20:07.181Z,8.27
2023-04-18T08:22:34.162Z,8.68
2023-04-18T08:25:05.407Z,8.68
2023-04-18T08:27:32.853Z,8.80
2023-04-18T08:29:59.842Z,9.00
2023-04-18T08:32:26.612Z,9.13
2023-04-18T08:34:53.226Z,9.52
2023-04-18T08:37:19.893Z,9.23
2023-04-18T08:39:46.517Z,10.27
2023-04-18T08:42:16.484Z,9.80
2023-04-18T08:44:43.273Z,9.60
2023-04-18T08:47:09.946Z,8.88
2023-04-18T08:49:36.692Z,9.60
2023-04-18T08:52:13.701Z,9.57
2023-04-18T08:54:45.226Z,9.40
2023-04-18T08:57:16.436Z,9.90
2023-04-18T08:59:47.103Z,9.15
2023-04-18T09:02:15.615Z,10.10
2023-04-18T09:04:49.151Z,10.68
2023-04-18T09:07:17.092Z,10.13
2023-04-18T09:09:51.900Z,10.65
2023-04-18T09:12:22.424Z,10.07
2023-04-18T09:14:51.654Z,9.45
2023-04-18T09:17:41.771Z,9.82
2023-04-18T09:20:10.917Z,9.93
2023-04-18T09:22:54.396Z,10.25
2023-04-18T09:25:46.608Z,10.30
2023-04-18T09:28:23.766Z,10.27
2023-04-18T09:30:52.545Z,10.15
2023-04-18T09:33:28.269Z,10.40
2023-04-18T09:36:27.141Z,9.60
2023-04-18T09:38:56.609Z,9.18
2023-04-18T09:41:24.112Z,9.18
2023-04-18T09:44:11.531Z,10.35
2023-04-18T09:46:40.383Z,9.35
2023-04-18T09:49:08.470Z,8.68
2023-04-18T09:51:40.354Z,9.23
2023-04-18T09:54:09.282Z,9.20
2023-04-18T09:56:38.003Z,8.82
2023-04-18T09:59:09.304Z,8.77
2023-04-18T10:01:36.543Z,8.43
2023-04-18T10:04:06.463Z,8.52
2023-04-18T10:06:42.060Z,9.00
2023-04-18T10:09:10.153Z,9.00
2023-04-18T10:11:37.420Z,8.85
2023-04-18T10:14:12.005Z,9.40
2023-04-18T10:16:39.728Z,8.63
2023-04-18T10:19:29.554Z,9.13
2023-04-18T10:21:59.518Z,9.50
2023-04-18T10:24:45.024Z,8.52
2023-04-18T10:27:11.755Z,9.20
2023-04-18T10:29:52.492Z,8.50
2023-04-18T10:32:23.202Z,9.20
2023-04-18T10:34:50.521Z,9.60
2023-04-18T10:37:18.952Z,8.48
2023-04-18T10:39:54.404Z,9.27
2023-04-18T10:42:46.905Z,8.77
2023-04-18T10:45:20.350Z,9.48
2023-04-18T10:47:47.167Z,9.95
2023-04-18T10:50:14.549Z,9.73
2023-04-18T10:52:41.772Z,9.95
2023-04-18T10:55:10.109Z,9.98
2023-04-18T10:57:41.707Z,9.93
2023-04-18T11:00:11.830Z,10.13
2023-04-18T11:02:39.158Z,9.93
2023-04-18T11:05:08.196Z,9.75
2023-04-18T11:07:45.008Z,10.60
2023-04-18T11:10:12.707Z,8.98
2023-04-18T11:12:40.731Z,8.60
2023-04-18T11:15:15.922Z,8.50
2023-04-18T11:17:42.694Z,8.73
2023-04-18T11:20:12.765Z,8.10
2023-04-18T11:22:52.528Z,7.93
2023-04-18T11:25:23.671Z,7.82
2023-04-18T11:27:57.152Z,7.22
2023-04-18T11:30:23.847Z,7.55
2023-04-18T11:32:51.720Z,8.00
2023-04-18T11:35:19.475Z,7.50
2023-04-18T11:37:46.155Z,7.85
2023-04-18T11:40:14.314Z,7.97
2023-04-18T11:42:41.952Z,7.50
2023-04-18T11:45:15.897Z,8.20
2023-04-18T11:47:43.733Z,8.15
2023-04-18T11:50:12.486Z,9.43
2023-04-18T11:52:41.638Z,7.93
2023-04-18T11:55:23.971Z,8.07
2023-04-18T11:57:51.985Z,7.60
2023-04-18T12:00:21.466Z,7.53
2023-04-18T12:02:50.936Z,7.50
2023-04-18T12:05:30.099Z,7.93
2023-04-18T12:08:14.020Z,7.20
2023-04-18T12:10:48.487Z,6.50
2023-04-18T12:13:15.183Z,6.22
2023-04-18T12:15:44.638Z,7.00
2023-04-18T12:18:13.347Z,6.22
2023-04-18T12:20:52.301Z,6.35
2023-04-18T12:23:37.172Z,6.25
2023-04-18T12:26:15.308Z,6.20
2023-04-18T12:28:45.953Z,5.57
2023-04-18T12:31:13.054Z,5.38
2023-04-18T12:33:39.749Z,4.97
2023-04-18T12:36:08.416Z,5.35
2023-04-18T12:38:35.463Z,4.82
2023-04-18T12:41:02.072Z,5.40
2023-04-18T12:43:28.700Z,4.72
2023-04-18T12:45:55.309Z,5.00
2023-04-18T12:48:22.400Z,5.30
2023-04-18T12:50:49.076Z,4.95
2023-04-18T12:53:15.751Z,5.28
2023-04-18T12:55:42.403Z,5.22
2023-04-18T12:58:08.996Z,5.13
2023-04-18T13:00:35.759Z,5.10
2023-04-18T13:03:02.975Z,5.47
2023-04-18T13:05:32.811Z,5.85
2023-04-18T13:08:12.732Z,5.25
2023-04-18T13:10:42.576Z,5.40
2023-04-18T13:13:09.187Z,5.60
2023-04-18T13:15:36.233Z,5.63
2023-04-18T13:18:06.041Z,5.40
2023-04-18T13:20:34.003Z,5.45
2023-04-18T13:23:02.901Z,5.88
2023-04-18T13:25:29.977Z,5.28
2023-04-18T13:27:58.454Z,5.90
2023-04-18T13:30:25.582Z,5.45
2023-04-18T13:32:52.487Z,5.20
2023-04-18T13:35:19.193Z,5.03
2023-04-18T13:37:46.288Z,5.78
2023-04-18T13:40:13.427Z,5.60
2023-04-18T13:42:40.248Z,5.25
2023-04-18T13:45:07.466Z,5.20
2023-04-18T13:47:34.584Z,5.40
2023-04-18T13:50:01.287Z,5.35
2023-04-18T13:52:27.981Z,5.47
2023-04-18T13:54:54.995Z,5.32
2023-04-18T13:57:21.997Z,5.28
2023-04-18T13:59:48.617Z,5.40
2023-04-18T14:02:15.389Z,5.80
2023-04-18T14:04:42.373Z,5.45
2023-04-18T14:07:09.418Z,5.38
2023-04-18T14:09:36.312Z,5.80
2023-04-18T14:12:03.048Z,6.47
2023-04-18T14:14:29.957Z,5.55
2023-04-18T14:16:56.629Z,5.70
2023-04-18T14:19:23.287Z,5.65
2023-04-18T14:21:50.037Z,6.30
2023-04-18T14:24:16.765Z,5.55
2023-04-18T14:26:44.040Z,6.13
2023-04-18T14:29:11.105Z,6.57
2023-04-18T14:31:37.986Z,6.30
2023-04-18T14:34:05.639Z,5.88
2023-04-18T14:36:33.758Z,6.60
2023-04-18T14:39:00.576Z,6.22
2023-04-18T14:41:27.347Z,6.18
2023-04-18T14:43:54.007Z,6.55
2023-04-18T14:46:21.241Z,6.20
2023-04-18T14:48:50.917Z,6.45
2023-04-18T14:51:17.613Z,6.00
2023-04-18T14:53:44.934Z,6.13
2023-04-18T14:56:11.791Z,5.85
2023-04-18T14:58:38.407Z,6.53
2023-04-18T15:01:05.770Z,6.25
2023-04-18T15:03:33.095Z,6.00
2023-04-18T15:06:00.041Z,5.80
2023-04-18T15:08:27.075Z,5.50
2023-04-18T15:10:53.653Z,5.57
2023-04-18T15:13:20.317Z,5.60
2023-04-18T15:15:54.400Z,5.60
2023-04-18T15:18:21.211Z,5.90
2023-04-18T15:20:47.891Z,6.22
2023-04-18T15:23:14.968Z,5.45
2023-04-18T15:25:45.117Z,5.97
2023-04-18T15:28:13.311Z,6.40
2023-04-18T15:30:40.170Z,6.13
2023-04-18T15:33:06.882Z,6.00
2023-04-18T15:35:33.518Z,5.60
2023-04-18T15:38:00.306Z,5.85
2023-04-18T15:40:26.908Z,6.20
2023-04-18T15:42:54.341Z,5.63
2023-04-18T15:45:21.860Z,6.05
2023-04-18T15:47:48.547Z,5.80
2023-04-18T15:50:16.284Z,5.40
2023-04-18T15:52:43.344Z,5.40
2023-04-18T15:55:13.514Z,5.70
2023-04-18T15:57:41.599Z,5.28
2023-04-18T16:00:17.324Z,5.70
2023-04-18T16:02:45.135Z,5.50
2023-04-18T16:05:12.697Z,5.55
2023-04-18T16:07:40.287Z,4.85
2023-04-18T16:10:10.560Z,5.32
2023-04-18T16:12:38.570Z,4.95
2023-04-18T16:15:06.973Z,5.68
2023-04-18T16:17:33.994Z,5.47
2023-04-18T16:20:00.652Z,5.32
2023-04-18T16:22:27.271Z,5.07
2023-04-18T16:24:53.890Z,5.40
2023-04-18T16:27:20.542Z,5.75
2023-04-18T16:29:47.225Z,4.82
2023-04-18T16:32:13.936Z,4.75
2023-04-18T16:34:40.588Z,5.18
2023-04-18T16:37:07.426Z,5.32
2023-04-18T16:39:34.237Z,4.97
2023-04-18T16:42:01.457Z,4.85
2023-04-18T16:44:28.152Z,5.03
2023-04-18T16:46:54.828Z,5.10
2023-04-18T16:49:21.821Z,5.30
2023-04-18T16:51:49.001Z,4.82
2023-04-18T16:54:16.208Z,4.85
2023-04-18T16:56:44.617Z,5.00
2023-04-18T16:59:11.497Z,5.38
2023-04-18T17:01:38.173Z,5.45
2023-04-18T17:04:05.297Z,5.43
2023-04-18T17:06:32.673Z,5.60
2023-04-18T17:08:59.491Z,4.70
2023-04-18T17:11:26.548Z,5.40
2023-04-18T17:13:53.309Z,5.07
2023-04-18T17:16:20.042Z,5.35
2023-04-18T17:18:46.746Z,5.63
2023-04-18T17:21:13.595Z,5.13
2023-04-18T17:23:42.316Z,5.20
2023-04-18T17:26:09.846Z,5.03
2023-04-18T17:28:37.057Z,5.07
2023-04-18T17:31:04.492Z,5.15
2023-04-18T17:33:31.681Z,5.35
2023-04-18T17:35:58.715Z,5.43
2023-04-18T17:38:25.590Z,5.93
2023-04-18T17:41:02.971Z,5.50
2023-04-18T17:43:29.665Z,5.65
2023-04-18T17:45:59.564Z,6.38
2023-04-18T17:48:26.246Z,6.10
2023-04-18T17:50:52.854Z,6.40
2023-04-18T17:53:19.553Z,6.25
2023-04-18T17:55:48.853Z,6.35
2023-04-18T17:58:16.850Z,5.78
2023-04-18T18:00:43.556Z,5.47
2023-04-18T18:03:13.613Z,5.75
2023-04-18T18:05:41.555Z,5.75
2023-04-18T18:08:08.169Z,6.07
2023-04-18T18:10:34.841Z,6.10
2023-04-18T18:13:01.657Z,6.00
2023-04-18T18:15:30.177Z,6.53
2023-04-18T18:17:57.152Z,6.40
2023-04-18T18:20:24.243Z,7.65
2023-04-18T18:22:51.460Z,6.13
2023-04-18T18:25:18.368Z,5.90
2023-04-18T18:27:45.039Z,6.80
2023-04-18T18:30:11.826Z,6.50
2023-04-18T18:32:38.551Z,5.97
2023-04-18T18:35:06.172Z,6.75
2023-04-18T18:37:33.197Z,5.60
2023-04-18T18:39:59.927Z,6.10
2023-04-18T18:42:26.549Z,6.28
2023-04-18T18:44:53.167Z,5.75
2023-04-18T18:47:19.804Z,6.10
2023-04-18T18:49:47.363Z,6.40
2023-04-18T18:52:14.157Z,5.80
2023-04-18T18:54:41.229Z,6.22
2023-04-18T18:57:08.587Z,6.10
2023-04-18T18:59:35.806Z,6.15
2023-04-18T19:02:02.545Z,5.85
2023-04-18T19:04:29.508Z,6.45
2023-04-18T19:06:56.294Z,6.07
2023-04-18T19:09:22.924Z,6.50
2023-04-18T19:11:49.869Z,7.50
2023-04-18T19:14:16.576Z,6.25
2023-04-18T19:16:43.222Z,6.32
2023-04-18T19:19:10.221Z,6.50
2023-04-18T19:21:36.905Z,6.55
2023-04-18T19:24:03.690Z,6.20
2023-04-18T19:26:30.403Z,6.65
2023-04-18T19:28:57.115Z,6.47
2023-04-18T19:31:23.938Z,6.35
2023-04-18T19:33:50.687Z,6.53
2023-04-18T19:36:17.336Z,6.82
2023-04-18T19:38:43.961Z,6.65
2023-04-18T19:41:10.742Z,6.70
2023-04-18T19:43:38.510Z,5.93
2023-04-18T19:46:05.251Z,6.45
2023-04-18T19:48:31.927Z,6.15
2023-04-18T19:50:58.507Z,6.38
2023-04-18T19:53:25.237Z,7.20
2023-04-18T19:55:51.899Z,6.72
2023-04-18T19:58:39.789Z,6.85
2023-04-18T20:01:07.537Z,6.30
2023-04-18T20:03:34.553Z,6.85
2023-04-18T20:06:01.605Z,7.20
2023-04-18T20:08:29.355Z,7.07
2023-04-18T20:10:56.470Z,6.95
2023-04-18T20:13:23.222Z,7.10
2023-04-18T20:15:49.897Z,7.32
2023-04-18T20:18:17.155Z,6.85
2023-04-18T20:20:43.840Z,7.15
2023-04-18T20:23:11.065Z,7.32
2023-04-18T20:25:37.757Z,7.53
2023-04-18T20:28:04.590Z,8.25
2023-04-18T20:30:31.447Z,7.68
2023-04-18T20:32:58.145Z,7.55
2023-04-18T20:35:25.094Z,8.02
2023-04-18T20:37:51.686Z,8.23
2023-04-18T20:40:18.629Z,7.65
2023-04-18T20:42:45.351Z,7.70
2023-04-18T20:45:12.437Z,7.28
2023-04-18T20:47:42.408Z,6.97
2023-04-18T20:50:10.535Z,8.05
2023-04-18T20:52:37.222Z,7.13
2023-04-18T20:55:03.985Z,6.78
2023-04-18T20:57:30.726Z,6.90
2023-04-18T20:59:58.661Z,7.10
2023-04-18T21:04:52.940Z,6.70
2023-04-18T21:07:19.751Z,7.07
2023-04-18T21:09:46.444Z,6.53
2023-04-18T21:12:13.196Z,6.63
2023-04-18T21:14:39.793Z,6.97
2023-04-18T21:17:06.458Z,7.20
2023-04-18T21:19:33.181Z,6.35
2023-04-18T21:21:59.788Z,6.85
2023-04-18T21:24:26.471Z,7.18
2023-04-18T21:26:53.193Z,6.40
2023-04-18T21:29:19.756Z,6.95
2023-04-18T21:31:48.913Z,6.70
2023-04-18T21:34:16.002Z,6.53
2023-04-18T21:36:42.805Z,6.80
2023-04-18T21:39:09.876Z,6.78
2023-04-18T21:41:36.557Z,6.63
2023-04-18T21:44:03.370Z,6.75
2023-04-18T21:46:30.069Z,6.63
2023-04-18T21:48:57.207Z,6.57
2023-04-18T21:51:23.917Z,6.65
2023-04-18T21:53:50.528Z,6.40
2023-04-18T21:56:17.671Z,6.65
2023-04-18T21:58:44.345Z,7.03
2023-04-18T22:01:11.257Z,6.75
2023-04-18T22:03:38.182Z,6.22
2023-04-18T22:06:05.005Z,7.40
2023-04-18T22:08:31.681Z,6.53
2023-04-18T22:10:58.987Z,6.75
2023-04-18T22:13:32.708Z,7.80
2023-04-18T22:16:03.338Z,7.13
2023-04-18T22:18:33.979Z,7.35
2023-04-18T22:21:02.370Z,7.95
2023-04-18T22:23:30.239Z,7.55
2023-04-18T22:25:56.940Z,7.70
2023-04-18T22:28:23.623Z,8.40
2023-04-18T22:30:51.305Z,7.30
2023-04-18T22:33:17.992Z,7.75
2023-04-18T22:35:44.676Z,7.60
2023-04-18T22:38:11.326Z,8.10
2023-04-18T22:40:37.926Z,8.35
2023-04-18T22:43:04.670Z,7.50
2023-04-18T22:45:31.300Z,7.68
2023-04-18T22:47:57.911Z,8.57
2023-04-18T22:50:24.551Z,7.90
2023-04-18T22:52:51.363Z,7.50
2023-04-18T22:55:19.855Z,8.07
2023-04-18T22:57:46.532Z,7.10
2023-04-18T23:00:13.707Z,7.53
2023-04-18T23:02:40.724Z,7.25
2023-04-18T23:05:08.042Z,7.40
2023-04-18T23:07:34.653Z,7.13
2023-04-18T23:10:01.319Z,6.97
2023-04-18T23:12:27.926Z,7.25
2023-04-18T23:14:54.600Z,7.45
2023-04-18T23:17:21.260Z,7.18
2023-04-18T23:19:48.037Z,7.38
2023-04-18T23:22:14.724Z,7.07
2023-04-18T23:24:41.352Z,6.40
2023-04-18T23:27:08.020Z,7.53
2023-04-18T23:29:39.170Z,7.13
2023-04-18T23:32:06.604Z,7.07
2023-04-18T23:34:33.346Z,7.32
2023-04-18T23:37:00.586Z,7.10
2023-04-18T23:39:27.214Z,7.85
2023-04-18T23:41:53.900Z,7.72
2023-04-18T23:44:20.757Z,7.60
2023-04-18T23:46:48.032Z,7.50
2023-04-18T23:49:15.707Z,7.78
2023-04-18T23:51:42.488Z,8.07
2023-04-18T23:54:09.117Z,7.70
2023-04-18T23:56:35.883Z,7.80
2023-04-18T23:59:02.540Z,7.63
